sensor_id;sensor_type;location;lat;lon;timestamp;P1;durP1;ratioP1;P2;durP2;ratioP2
7340;SDS011;6870;50.944;6.932;2023-03-03T00:01:32;4.60;;;2.90;;
7340;SDS011;6870;50.944;6.932;2023-03-03T00:04:00;4.67;;;3.60;;
7340;SDS011;6870;50.944;6.932;2023-03-03T00:06:28;3.40;;;2.83;;
7340;SDS011;6870;50.944;6.932;2023-03-03T00:08:56;4.03;;;3.43;;
7340;SDS011;6870;50.944;6.932;2023-03-03T00:11:24;9.03;;;3.10;;
7340;SDS011;6870;50.944;6.932;2023-03-03T00:13:53;5.50;;;3.37;;
7340;SDS011;6870;50.944;6.932;2023-03-03T00:16:24;4.90;;;3.63;;
7340;SDS011;6870;50.944;6.932;2023-03-03T00:18:56;5.43;;;3.17;;
7340;SDS011;6870;50.944;6.932;2023-03-03T00:21:28;5.37;;;3.63;;
7340;SDS011;6870;50.944;6.932;2023-03-03T00:24:10;3.07;;;2.77;;
7340;SDS011;6870;50.944;6.932;2023-03-03T00:26:47;3.50;;;2.80;;
7340;SDS011;6870;50.944;6.932;2023-03-03T00:29:28;6.23;;;3.30;;
7340;SDS011;6870;50.944;6.932;2023-03-03T00:32:08;3.23;;;2.93;;
7340;SDS011;6870;50.944;6.932;2023-03-03T00:34:47;4.00;;;3.03;;
7340;SDS011;6870;50.944;6.932;2023-03-03T00:37:19;4.20;;;3.03;;
7340;SDS011;6870;50.944;6.932;2023-03-03T00:42:51;5.37;;;3.53;;
7340;SDS011;6870;50.944;6.932;2023-03-03T00:45:26;3.50;;;2.90;;
7340;SDS011;6870;50.944;6.932;2023-03-03T00:47:57;6.60;;;3.10;;
7340;SDS011;6870;50.944;6.932;2023-03-03T00:50:40;5.60;;;3.87;;
7340;SDS011;6870;50.944;6.932;2023-03-03T00:53:11;8.00;;;3.83;;
7340;SDS011;6870;50.944;6.932;2023-03-03T00:55:42;3.20;;;2.90;;
7340;SDS011;6870;50.944;6.932;2023-03-03T00:58:12;4.17;;;2.93;;
7340;SDS011;6870;50.944;6.932;2023-03-03T01:00:40;3.47;;;3.17;;
7340;SDS011;6870;50.944;6.932;2023-03-03T01:03:09;3.57;;;3.17;;
7340;SDS011;6870;50.944;6.932;2023-03-03T01:05:42;3.70;;;3.30;;
7340;SDS011;6870;50.944;6.932;2023-03-03T01:08:10;3.80;;;3.17;;
7340;SDS011;6870;50.944;6.932;2023-03-03T01:10:40;5.30;;;3.70;;
7340;SDS011;6870;50.944;6.932;2023-03-03T01:13:11;4.87;;;3.43;;
7340;SDS011;6870;50.944;6.932;2023-03-03T01:15:39;3.10;;;2.70;;
7340;SDS011;6870;50.944;6.932;2023-03-03T01:18:08;4.70;;;3.47;;
7340;SDS011;6870;50.944;6.932;2023-03-03T01:20:38;4.07;;;3.30;;
7340;SDS011;6870;50.944;6.932;2023-03-03T01:23:08;4.53;;;3.57;;
7340;SDS011;6870;50.944;6.932;2023-03-03T01:25:36;4.30;;;3.27;;
7340;SDS011;6870;50.944;6.932;2023-03-03T01:28:05;5.73;;;3.10;;
7340;SDS011;6870;50.944;6.932;2023-03-03T01:30:33;4.00;;;3.17;;
7340;SDS011;6870;50.944;6.932;2023-03-03T01:33:02;3.57;;;2.90;;
7340;SDS011;6870;50.944;6.932;2023-03-03T01:35:30;4.73;;;3.07;;
7340;SDS011;6870;50.944;6.932;2023-03-03T01:37:58;5.00;;;3.47;;
7340;SDS011;6870;50.944;6.932;2023-03-03T01:40:29;4.87;;;3.50;;
7340;SDS011;6870;50.944;6.932;2023-03-03T01:42:58;4.10;;;3.70;;
7340;SDS011;6870;50.944;6.932;2023-03-03T01:45:27;4.60;;;3.27;;
7340;SDS011;6870;50.944;6.932;2023-03-03T01:47:58;3.57;;;3.23;;
7340;SDS011;6870;50.944;6.932;2023-03-03T01:50:30;3.17;;;2.90;;
7340;SDS011;6870;50.944;6.932;2023-03-03T01:53:10;2.97;;;2.57;;
7340;SDS011;6870;50.944;6.932;2023-03-03T01:55:45;3.63;;;3.20;;
7340;SDS011;6870;50.944;6.932;2023-03-03T01:58:19;3.10;;;2.63;;
7340;SDS011;6870;50.944;6.932;2023-03-03T02:00:54;4.77;;;3.20;;
7340;SDS011;6870;50.944;6.932;2023-03-03T02:03:26;3.40;;;3.10;;
7340;SDS011;6870;50.944;6.932;2023-03-03T02:05:57;3.30;;;3.00;;
7340;SDS011;6870;50.944;6.932;2023-03-03T02:08:31;4.07;;;3.70;;
7340;SDS011;6870;50.944;6.932;2023-03-03T02:11:07;3.43;;;3.10;;
7340;SDS011;6870;50.944;6.932;2023-03-03T02:13:35;4.10;;;3.47;;
7340;SDS011;6870;50.944;6.932;2023-03-03T02:16:03;4.47;;;3.70;;
7340;SDS011;6870;50.944;6.932;2023-03-03T02:18:32;3.20;;;2.87;;
7340;SDS011;6870;50.944;6.932;2023-03-03T02:21:01;3.73;;;3.43;;
7340;SDS011;6870;50.944;6.932;2023-03-03T02:23:37;3.57;;;3.10;;
7340;SDS011;6870;50.944;6.932;2023-03-03T02:26:11;4.20;;;3.67;;
7340;SDS011;6870;50.944;6.932;2023-03-03T02:28:42;3.50;;;3.20;;
7340;SDS011;6870;50.944;6.932;2023-03-03T02:31:11;3.50;;;3.20;;
7340;SDS011;6870;50.944;6.932;2023-03-03T02:33:43;3.53;;;3.10;;
7340;SDS011;6870;50.944;6.932;2023-03-03T02:36:12;3.77;;;3.00;;
7340;SDS011;6870;50.944;6.932;2023-03-03T02:38:44;4.43;;;4.03;;
7340;SDS011;6870;50.944;6.932;2023-03-03T02:41:20;3.60;;;3.30;;
7340;SDS011;6870;50.944;6.932;2023-03-03T02:43:56;3.07;;;2.83;;
7340;SDS011;6870;50.944;6.932;2023-03-03T02:46:27;4.63;;;3.30;;
7340;SDS011;6870;50.944;6.932;2023-03-03T02:49:00;3.43;;;3.10;;
7340;SDS011;6870;50.944;6.932;2023-03-03T02:51:28;4.37;;;4.07;;
7340;SDS011;6870;50.944;6.932;2023-03-03T02:53:56;5.43;;;4.20;;
7340;SDS011;6870;50.944;6.932;2023-03-03T02:56:26;3.83;;;3.53;;
7340;SDS011;6870;50.944;6.932;2023-03-03T02:58:54;5.43;;;3.97;;
7340;SDS011;6870;50.944;6.932;2023-03-03T03:01:22;3.33;;;3.03;;
7340;SDS011;6870;50.944;6.932;2023-03-03T03:03:51;4.10;;;3.70;;
7340;SDS011;6870;50.944;6.932;2023-03-03T03:06:19;3.30;;;3.00;;
7340;SDS011;6870;50.944;6.932;2023-03-03T03:08:47;3.50;;;3.20;;
7340;SDS011;6870;50.944;6.932;2023-03-03T03:11:15;3.60;;;3.17;;
7340;SDS011;6870;50.944;6.932;2023-03-03T03:13:44;3.60;;;3.27;;
7340;SDS011;6870;50.944;6.932;2023-03-03T03:16:12;5.13;;;3.53;;
7340;SDS011;6870;50.944;6.932;2023-03-03T03:18:40;5.23;;;3.57;;
7340;SDS011;6870;50.944;6.932;2023-03-03T03:21:09;6.37;;;3.93;;
7340;SDS011;6870;50.944;6.932;2023-03-03T03:23:39;3.63;;;3.33;;
7340;SDS011;6870;50.944;6.932;2023-03-03T03:26:08;4.07;;;3.67;;
7340;SDS011;6870;50.944;6.932;2023-03-03T03:28:36;4.57;;;4.03;;
7340;SDS011;6870;50.944;6.932;2023-03-03T03:31:06;4.33;;;4.03;;
7340;SDS011;6870;50.944;6.932;2023-03-03T03:33:35;4.07;;;3.50;;
7340;SDS011;6870;50.944;6.932;2023-03-03T03:36:04;3.93;;;3.33;;
7340;SDS011;6870;50.944;6.932;2023-03-03T03:38:33;3.60;;;3.30;;
7340;SDS011;6870;50.944;6.932;2023-03-03T03:41:03;5.60;;;4.00;;
7340;SDS011;6870;50.944;6.932;2023-03-03T03:43:33;3.87;;;3.10;;
7340;SDS011;6870;50.944;6.932;2023-03-03T03:46:01;5.10;;;4.00;;
7340;SDS011;6870;50.944;6.932;2023-03-03T03:48:31;4.60;;;3.60;;
7340;SDS011;6870;50.944;6.932;2023-03-03T03:50:59;4.70;;;3.43;;
7340;SDS011;6870;50.944;6.932;2023-03-03T03:53:27;4.60;;;3.73;;
7340;SDS011;6870;50.944;6.932;2023-03-03T03:55:55;5.23;;;3.90;;
7340;SDS011;6870;50.944;6.932;2023-03-03T03:58:23;3.53;;;3.23;;
7340;SDS011;6870;50.944;6.932;2023-03-03T04:00:51;4.47;;;3.60;;
7340;SDS011;6870;50.944;6.932;2023-03-03T04:03:19;4.33;;;3.80;;
7340;SDS011;6870;50.944;6.932;2023-03-03T04:05:49;3.97;;;3.57;;
7340;SDS011;6870;50.944;6.932;2023-03-03T04:08:20;3.93;;;3.43;;
7340;SDS011;6870;50.944;6.932;2023-03-03T04:10:48;4.20;;;3.60;;
7340;SDS011;6870;50.944;6.932;2023-03-03T04:13:16;3.77;;;3.47;;
7340;SDS011;6870;50.944;6.932;2023-03-03T04:15:44;4.20;;;3.80;;
7340;SDS011;6870;50.944;6.932;2023-03-03T04:18:12;5.23;;;3.53;;
7340;SDS011;6870;50.944;6.932;2023-03-03T04:20:40;3.53;;;3.10;;
7340;SDS011;6870;50.944;6.932;2023-03-03T04:23:10;4.70;;;3.50;;
7340;SDS011;6870;50.944;6.932;2023-03-03T04:25:38;4.60;;;3.50;;
7340;SDS011;6870;50.944;6.932;2023-03-03T04:28:06;3.20;;;2.90;;
7340;SDS011;6870;50.944;6.932;2023-03-03T04:30:35;4.20;;;3.77;;
7340;SDS011;6870;50.944;6.932;2023-03-03T04:33:03;5.00;;;3.13;;
7340;SDS011;6870;50.944;6.932;2023-03-03T04:35:31;3.60;;;3.30;;
7340;SDS011;6870;50.944;6.932;2023-03-03T04:37:59;3.50;;;3.20;;
7340;SDS011;6870;50.944;6.932;2023-03-03T04:40:29;4.03;;;3.67;;
7340;SDS011;6870;50.944;6.932;2023-03-03T04:42:57;4.30;;;3.43;;
7340;SDS011;6870;50.944;6.932;2023-03-03T04:45:25;3.73;;;3.37;;
7340;SDS011;6870;50.944;6.932;2023-03-03T04:47:53;4.03;;;3.63;;
7340;SDS011;6870;50.944;6.932;2023-03-03T04:50:21;3.43;;;3.13;;
7340;SDS011;6870;50.944;6.932;2023-03-03T04:52:49;3.73;;;3.37;;
7340;SDS011;6870;50.944;6.932;2023-03-03T04:55:17;4.63;;;3.33;;
7340;SDS011;6870;50.944;6.932;2023-03-03T04:57:46;3.53;;;3.20;;
7340;SDS011;6870;50.944;6.932;2023-03-03T05:00:15;4.03;;;3.13;;
7340;SDS011;6870;50.944;6.932;2023-03-03T05:02:44;3.97;;;3.57;;
7340;SDS011;6870;50.944;6.932;2023-03-03T05:05:14;4.03;;;3.53;;
7340;SDS011;6870;50.944;6.932;2023-03-03T05:07:42;3.63;;;3.33;;
7340;SDS011;6870;50.944;6.932;2023-03-03T05:10:11;4.70;;;3.20;;
7340;SDS011;6870;50.944;6.932;2023-03-03T05:12:39;4.10;;;3.70;;
7340;SDS011;6870;50.944;6.932;2023-03-03T05:15:09;3.70;;;3.40;;
7340;SDS011;6870;50.944;6.932;2023-03-03T05:17:37;3.63;;;3.33;;
7340;SDS011;6870;50.944;6.932;2023-03-03T05:20:06;3.50;;;3.20;;
7340;SDS011;6870;50.944;6.932;2023-03-03T05:22:36;5.00;;;3.30;;
7340;SDS011;6870;50.944;6.932;2023-03-03T05:25:04;3.10;;;2.80;;
7340;SDS011;6870;50.944;6.932;2023-03-03T05:27:35;3.73;;;3.40;;
7340;SDS011;6870;50.944;6.932;2023-03-03T05:30:03;3.97;;;3.50;;
7340;SDS011;6870;50.944;6.932;2023-03-03T05:32:34;3.70;;;3.13;;
7340;SDS011;6870;50.944;6.932;2023-03-03T05:35:03;4.00;;;3.10;;
7340;SDS011;6870;50.944;6.932;2023-03-03T05:37:32;4.07;;;3.67;;
7340;SDS011;6870;50.944;6.932;2023-03-03T05:40:00;3.40;;;3.10;;
7340;SDS011;6870;50.944;6.932;2023-03-03T05:42:29;3.50;;;3.17;;
7340;SDS011;6870;50.944;6.932;2023-03-03T05:44:57;3.67;;;3.37;;
7340;SDS011;6870;50.944;6.932;2023-03-03T05:47:25;3.70;;;3.40;;
7340;SDS011;6870;50.944;6.932;2023-03-03T05:49:55;4.20;;;3.80;;
7340;SDS011;6870;50.944;6.932;2023-03-03T05:52:23;3.60;;;3.30;;
7340;SDS011;6870;50.944;6.932;2023-03-03T05:54:51;5.50;;;3.87;;
7340;SDS011;6870;50.944;6.932;2023-03-03T05:57:19;3.63;;;3.33;;
7340;SDS011;6870;50.944;6.932;2023-03-03T05:59:47;3.43;;;3.07;;
7340;SDS011;6870;50.944;6.932;2023-03-03T06:02:15;3.70;;;3.40;;
7340;SDS011;6870;50.944;6.932;2023-03-03T06:04:43;3.43;;;3.13;;
7340;SDS011;6870;50.944;6.932;2023-03-03T06:07:12;3.40;;;3.10;;
7340;SDS011;6870;50.944;6.932;2023-03-03T06:09:40;3.60;;;3.20;;
7340;SDS011;6870;50.944;6.932;2023-03-03T06:12:08;3.77;;;3.40;;
7340;SDS011;6870;50.944;6.932;2023-03-03T06:14:36;4.60;;;3.37;;
7340;SDS011;6870;50.944;6.932;2023-03-03T06:17:04;4.73;;;3.77;;
7340;SDS011;6870;50.944;6.932;2023-03-03T06:19:32;3.67;;;3.37;;
7340;SDS011;6870;50.944;6.932;2023-03-03T06:22:00;3.37;;;3.03;;
7340;SDS011;6870;50.944;6.932;2023-03-03T06:24:29;4.03;;;3.63;;
7340;SDS011;6870;50.944;6.932;2023-03-03T06:26:57;3.10;;;2.90;;
7340;SDS011;6870;50.944;6.932;2023-03-03T06:29:26;3.57;;;3.27;;
7340;SDS011;6870;50.944;6.932;2023-03-03T06:31:55;3.57;;;3.27;;
7340;SDS011;6870;50.944;6.932;2023-03-03T06:34:23;3.13;;;2.90;;
7340;SDS011;6870;50.944;6.932;2023-03-03T06:36:51;3.97;;;2.90;;
7340;SDS011;6870;50.944;6.932;2023-03-03T06:39:19;4.43;;;3.87;;
7340;SDS011;6870;50.944;6.932;2023-03-03T06:41:48;4.03;;;3.63;;
7340;SDS011;6870;50.944;6.932;2023-03-03T06:44:16;3.40;;;3.10;;
7340;SDS011;6870;50.944;6.932;2023-03-03T06:46:44;4.10;;;3.70;;
7340;SDS011;6870;50.944;6.932;2023-03-03T06:49:12;3.40;;;2.90;;
7340;SDS011;6870;50.944;6.932;2023-03-03T06:51:40;5.80;;;3.73;;
7340;SDS011;6870;50.944;6.932;2023-03-03T06:54:11;3.00;;;2.63;;
7340;SDS011;6870;50.944;6.932;2023-03-03T06:56:41;5.87;;;3.53;;
7340;SDS011;6870;50.944;6.932;2023-03-03T06:59:13;3.77;;;3.27;;
7340;SDS011;6870;50.944;6.932;2023-03-03T07:01:43;4.23;;;3.47;;
7340;SDS011;6870;50.944;6.932;2023-03-03T07:04:15;3.30;;;3.10;;
7340;SDS011;6870;50.944;6.932;2023-03-03T07:06:51;5.20;;;3.40;;
7340;SDS011;6870;50.944;6.932;2023-03-03T07:09:20;5.37;;;3.40;;
7340;SDS011;6870;50.944;6.932;2023-03-03T07:11:51;8.60;;;3.90;;
7340;SDS011;6870;50.944;6.932;2023-03-03T07:14:22;6.53;;;4.60;;
7340;SDS011;6870;50.944;6.932;2023-03-03T07:16:51;10.30;;;4.10;;
7340;SDS011;6870;50.944;6.932;2023-03-03T07:19:28;8.70;;;5.20;;
7340;SDS011;6870;50.944;6.932;2023-03-03T07:22:00;12.67;;;4.70;;
7340;SDS011;6870;50.944;6.932;2023-03-03T07:24:42;12.57;;;6.10;;
7340;SDS011;6870;50.944;6.932;2023-03-03T07:27:13;12.10;;;4.43;;
7340;SDS011;6870;50.944;6.932;2023-03-03T07:29:51;7.27;;;4.53;;
7340;SDS011;6870;50.944;6.932;2023-03-03T07:32:23;9.40;;;4.10;;
7340;SDS011;6870;50.944;6.932;2023-03-03T07:34:54;8.80;;;4.80;;
7340;SDS011;6870;50.944;6.932;2023-03-03T07:37:29;7.87;;;4.10;;
7340;SDS011;6870;50.944;6.932;2023-03-03T07:40:02;9.47;;;5.77;;
7340;SDS011;6870;50.944;6.932;2023-03-03T07:42:55;6.73;;;4.67;;
7340;SDS011;6870;50.944;6.932;2023-03-03T07:45:26;8.20;;;4.53;;
7340;SDS011;6870;50.944;6.932;2023-03-03T07:47:58;4.93;;;4.00;;
7340;SDS011;6870;50.944;6.932;2023-03-03T07:50:37;10.53;;;5.20;;
7340;SDS011;6870;50.944;6.932;2023-03-03T07:53:09;12.03;;;5.00;;
7340;SDS011;6870;50.944;6.932;2023-03-03T07:55:47;11.83;;;4.63;;
7340;SDS011;6870;50.944;6.932;2023-03-03T07:58:22;10.10;;;4.83;;
7340;SDS011;6870;50.944;6.932;2023-03-03T08:04:12;15.73;;;5.73;;
7340;SDS011;6870;50.944;6.932;2023-03-03T08:06:45;10.30;;;5.60;;
7340;SDS011;6870;50.944;6.932;2023-03-03T08:09:24;11.50;;;5.77;;
7340;SDS011;6870;50.944;6.932;2023-03-03T08:12:17;7.20;;;5.47;;
7340;SDS011;6870;50.944;6.932;2023-03-03T08:15:16;13.13;;;6.30;;
7340;SDS011;6870;50.944;6.932;2023-03-03T08:17:50;14.97;;;6.43;;
7340;SDS011;6870;50.944;6.932;2023-03-03T08:20:36;9.33;;;6.23;;
7340;SDS011;6870;50.944;6.932;2023-03-03T08:23:10;9.40;;;6.83;;
7340;SDS011;6870;50.944;6.932;2023-03-03T08:25:39;7.63;;;6.10;;
7340;SDS011;6870;50.944;6.932;2023-03-03T08:28:09;7.37;;;5.60;;
7340;SDS011;6870;50.944;6.932;2023-03-03T08:30:39;11.10;;;7.30;;
7340;SDS011;6870;50.944;6.932;2023-03-03T08:33:10;8.33;;;6.70;;
7340;SDS011;6870;50.944;6.932;2023-03-03T08:35:39;7.87;;;6.90;;
7340;SDS011;6870;50.944;6.932;2023-03-03T08:38:08;10.93;;;6.40;;
7340;SDS011;6870;50.944;6.932;2023-03-03T08:40:38;7.63;;;6.37;;
7340;SDS011;6870;50.944;6.932;2023-03-03T08:43:06;7.90;;;6.60;;
7340;SDS011;6870;50.944;6.932;2023-03-03T08:45:34;7.80;;;6.10;;
7340;SDS011;6870;50.944;6.932;2023-03-03T08:48:03;7.60;;;5.90;;
7340;SDS011;6870;50.944;6.932;2023-03-03T08:50:33;7.33;;;6.20;;
7340;SDS011;6870;50.944;6.932;2023-03-03T08:53:01;6.40;;;5.43;;
7340;SDS011;6870;50.944;6.932;2023-03-03T08:55:29;9.03;;;6.23;;
7340;SDS011;6870;50.944;6.932;2023-03-03T08:57:58;7.70;;;5.27;;
7340;SDS011;6870;50.944;6.932;2023-03-03T09:00:26;7.77;;;5.77;;
7340;SDS011;6870;50.944;6.932;2023-03-03T09:02:54;8.00;;;5.60;;
7340;SDS011;6870;50.944;6.932;2023-03-03T09:05:23;7.70;;;6.80;;
7340;SDS011;6870;50.944;6.932;2023-03-03T09:07:53;6.70;;;6.00;;
7340;SDS011;6870;50.944;6.932;2023-03-03T09:10:23;6.10;;;5.50;;
7340;SDS011;6870;50.944;6.932;2023-03-03T09:12:56;6.57;;;5.83;;
7340;SDS011;6870;50.944;6.932;2023-03-03T09:15:29;7.93;;;5.90;;
7340;SDS011;6870;50.944;6.932;2023-03-03T09:17:59;6.87;;;5.10;;
7340;SDS011;6870;50.944;6.932;2023-03-03T09:20:40;7.37;;;5.90;;
7340;SDS011;6870;50.944;6.932;2023-03-03T09:23:23;7.60;;;6.20;;
7340;SDS011;6870;50.944;6.932;2023-03-03T09:25:57;7.40;;;6.10;;
7340;SDS011;6870;50.944;6.932;2023-03-03T09:28:44;8.23;;;7.10;;
7340;SDS011;6870;50.944;6.932;2023-03-03T09:31:16;9.90;;;6.40;;
7340;SDS011;6870;50.944;6.932;2023-03-03T09:33:52;6.80;;;6.10;;
7340;SDS011;6870;50.944;6.932;2023-03-03T09:36:24;9.10;;;7.50;;
7340;SDS011;6870;50.944;6.932;2023-03-03T09:38:56;7.40;;;6.60;;
7340;SDS011;6870;50.944;6.932;2023-03-03T09:41:35;8.40;;;6.60;;
7340;SDS011;6870;50.944;6.932;2023-03-03T09:44:21;6.77;;;5.57;;
7340;SDS011;6870;50.944;6.932;2023-03-03T09:47:34;7.40;;;6.57;;
7340;SDS011;6870;50.944;6.932;2023-03-03T09:50:25;7.73;;;6.90;;
7340;SDS011;6870;50.944;6.932;2023-03-03T09:53:07;8.40;;;5.93;;
7340;SDS011;6870;50.944;6.932;2023-03-03T09:55:49;9.10;;;7.30;;
7340;SDS011;6870;50.944;6.932;2023-03-03T09:58:31;8.10;;;7.30;;
7340;SDS011;6870;50.944;6.932;2023-03-03T10:01:21;11.63;;;7.23;;
7340;SDS011;6870;50.944;6.932;2023-03-03T10:04:17;7.47;;;6.77;;
7340;SDS011;6870;50.944;6.932;2023-03-03T10:07:23;7.10;;;6.40;;
7340;SDS011;6870;50.944;6.932;2023-03-03T10:10:05;7.10;;;5.87;;
7340;SDS011;6870;50.944;6.932;2023-03-03T10:13:14;6.97;;;5.53;;
7340;SDS011;6870;50.944;6.932;2023-03-03T10:15:57;6.37;;;5.70;;
7340;SDS011;6870;50.944;6.932;2023-03-03T10:18:44;5.93;;;5.43;;
7340;SDS011;6870;50.944;6.932;2023-03-03T10:21:22;6.00;;;5.10;;
7340;SDS011;6870;50.944;6.932;2023-03-03T10:23:59;6.07;;;5.47;;
7340;SDS011;6870;50.944;6.932;2023-03-03T10:26:46;5.40;;;4.90;;
7340;SDS011;6870;50.944;6.932;2023-03-03T10:29:42;8.03;;;6.30;;
7340;SDS011;6870;50.944;6.932;2023-03-03T10:41:34;6.97;;;5.00;;
7340;SDS011;6870;50.944;6.932;2023-03-03T10:44:38;5.23;;;4.73;;
7340;SDS011;6870;50.944;6.932;2023-03-03T10:47:31;5.20;;;4.67;;
7340;SDS011;6870;50.944;6.932;2023-03-03T10:50:13;6.07;;;4.80;;
7340;SDS011;6870;50.944;6.932;2023-03-03T10:52:48;8.60;;;5.33;;
7340;SDS011;6870;50.944;6.932;2023-03-03T10:55:35;5.70;;;5.20;;
7340;SDS011;6870;50.944;6.932;2023-03-03T10:58:12;4.17;;;3.80;;
7340;SDS011;6870;50.944;6.932;2023-03-03T11:01:02;6.33;;;4.50;;
7340;SDS011;6870;50.944;6.932;2023-03-03T11:03:43;4.27;;;3.90;;
7340;SDS011;6870;50.944;6.932;2023-03-03T11:06:39;5.37;;;3.87;;
7340;SDS011;6870;50.944;6.932;2023-03-03T11:09:17;4.73;;;4.33;;
7340;SDS011;6870;50.944;6.932;2023-03-03T11:12:04;5.27;;;4.80;;
7340;SDS011;6870;50.944;6.932;2023-03-03T11:14:49;8.70;;;4.53;;
7340;SDS011;6870;50.944;6.932;2023-03-03T11:17:29;4.80;;;4.40;;
7340;SDS011;6870;50.944;6.932;2023-03-03T11:20:15;4.90;;;4.40;;
7340;SDS011;6870;50.944;6.932;2023-03-03T11:22:59;5.90;;;5.40;;
7340;SDS011;6870;50.944;6.932;2023-03-03T11:25:41;4.70;;;4.27;;
7340;SDS011;6870;50.944;6.932;2023-03-03T11:28:21;5.07;;;4.67;;
7340;SDS011;6870;50.944;6.932;2023-03-03T11:31:08;5.30;;;4.47;;
7340;SDS011;6870;50.944;6.932;2023-03-03T11:33:49;5.70;;;4.47;;
7340;SDS011;6870;50.944;6.932;2023-03-03T11:36:29;4.80;;;4.10;;
7340;SDS011;6870;50.944;6.932;2023-03-03T11:39:03;5.40;;;4.90;;
7340;SDS011;6870;50.944;6.932;2023-03-03T11:41:36;4.13;;;3.77;;
7340;SDS011;6870;50.944;6.932;2023-03-03T11:44:15;4.67;;;4.03;;
7340;SDS011;6870;50.944;6.932;2023-03-03T11:46:50;4.80;;;4.10;;
7340;SDS011;6870;50.944;6.932;2023-03-03T11:49:24;5.20;;;3.80;;
7340;SDS011;6870;50.944;6.932;2023-03-03T11:52:02;4.77;;;4.27;;
7340;SDS011;6870;50.944;6.932;2023-03-03T11:54:45;4.10;;;3.70;;
7340;SDS011;6870;50.944;6.932;2023-03-03T11:57:19;4.80;;;4.40;;
7340;SDS011;6870;50.944;6.932;2023-03-03T12:00:04;5.37;;;4.23;;
7340;SDS011;6870;50.944;6.932;2023-03-03T12:03:08;3.93;;;3.53;;
7340;SDS011;6870;50.944;6.932;2023-03-03T12:06:01;5.80;;;4.27;;
7340;SDS011;6870;50.944;6.932;2023-03-03T12:08:47;5.50;;;5.00;;
7340;SDS011;6870;50.944;6.932;2023-03-03T12:11:42;9.80;;;5.00;;
7340;SDS011;6870;50.944;6.932;2023-03-03T12:14:33;9.80;;;5.73;;
7340;SDS011;6870;50.944;6.932;2023-03-03T12:17:25;8.60;;;6.43;;
7340;SDS011;6870;50.944;6.932;2023-03-03T12:20:08;7.03;;;6.33;;
7340;SDS011;6870;50.944;6.932;2023-03-03T12:22:49;7.80;;;5.80;;
7340;SDS011;6870;50.944;6.932;2023-03-03T12:25:34;7.87;;;5.77;;
7340;SDS011;6870;50.944;6.932;2023-03-03T12:28:07;11.50;;;6.17;;
7340;SDS011;6870;50.944;6.932;2023-03-03T12:31:00;9.87;;;5.40;;
7340;SDS011;6870;50.944;6.932;2023-03-03T12:33:51;7.30;;;6.37;;
7340;SDS011;6870;50.944;6.932;2023-03-03T12:36:32;9.63;;;5.50;;
7340;SDS011;6870;50.944;6.932;2023-03-03T12:39:22;7.07;;;4.93;;
7340;SDS011;6870;50.944;6.932;2023-03-03T12:42:05;6.40;;;5.80;;
7340;SDS011;6870;50.944;6.932;2023-03-03T12:44:43;6.57;;;5.97;;
7340;SDS011;6870;50.944;6.932;2023-03-03T12:47:21;7.87;;;6.03;;
7340;SDS011;6870;50.944;6.932;2023-03-03T12:50:01;7.13;;;5.97;;
7340;SDS011;6870;50.944;6.932;2023-03-03T12:52:49;6.50;;;5.10;;
7340;SDS011;6870;50.944;6.932;2023-03-03T12:55:31;7.47;;;5.57;;
7340;SDS011;6870;50.944;6.932;2023-03-03T12:58:11;6.33;;;5.70;;
7340;SDS011;6870;50.944;6.932;2023-03-03T13:00:53;7.80;;;5.93;;
7340;SDS011;6870;50.944;6.932;2023-03-03T13:03:31;10.77;;;5.67;;
7340;SDS011;6870;50.944;6.932;2023-03-03T13:06:22;6.23;;;5.33;;
7340;SDS011;6870;50.944;6.932;2023-03-03T13:09:00;9.87;;;6.07;;
7340;SDS011;6870;50.944;6.932;2023-03-03T13:11:46;8.33;;;6.57;;
7340;SDS011;6870;50.944;6.932;2023-03-03T13:14:32;10.87;;;5.57;;
7340;SDS011;6870;50.944;6.932;2023-03-03T13:17:12;7.07;;;5.27;;
7340;SDS011;6870;50.944;6.932;2023-03-03T13:19:48;6.70;;;5.63;;
7340;SDS011;6870;50.944;6.932;2023-03-03T13:22:29;5.77;;;5.27;;
7340;SDS011;6870;50.944;6.932;2023-03-03T13:25:06;8.13;;;5.60;;
7340;SDS011;6870;50.944;6.932;2023-03-03T13:28:00;8.80;;;5.27;;
7340;SDS011;6870;50.944;6.932;2023-03-03T13:30:34;9.20;;;5.70;;
7340;SDS011;6870;50.944;6.932;2023-03-03T13:33:07;5.83;;;5.27;;
7340;SDS011;6870;50.944;6.932;2023-03-03T13:35:44;7.67;;;5.87;;
7340;SDS011;6870;50.944;6.932;2023-03-03T13:38:20;13.43;;;7.33;;
7340;SDS011;6870;50.944;6.932;2023-03-03T13:40:53;12.63;;;6.60;;
7340;SDS011;6870;50.944;6.932;2023-03-03T13:43:34;10.97;;;7.60;;
7340;SDS011;6870;50.944;6.932;2023-03-03T13:46:11;14.87;;;7.93;;
7340;SDS011;6870;50.944;6.932;2023-03-03T13:48:58;16.70;;;7.80;;
7340;SDS011;6870;50.944;6.932;2023-03-03T13:51:55;13.43;;;7.50;;
7340;SDS011;6870;50.944;6.932;2023-03-03T13:57:49;9.97;;;6.47;;
7340;SDS011;6870;50.944;6.932;2023-03-03T14:00:35;12.30;;;6.20;;
7340;SDS011;6870;50.944;6.932;2023-03-03T14:03:28;10.90;;;6.88;;
7340;SDS011;6870;50.944;6.932;2023-03-03T14:06:18;12.68;;;7.28;;
7340;SDS011;6870;50.944;6.932;2023-03-03T14:08:53;9.70;;;6.23;;
7340;SDS011;6870;50.944;6.932;2023-03-03T14:11:45;11.13;;;6.33;;
7340;SDS011;6870;50.944;6.932;2023-03-03T14:14:19;11.30;;;6.30;;
7340;SDS011;6870;50.944;6.932;2023-03-03T14:17:06;14.17;;;6.23;;
7340;SDS011;6870;50.944;6.932;2023-03-03T14:19:43;12.90;;;7.63;;
7340;SDS011;6870;50.944;6.932;2023-03-03T14:22:16;10.73;;;6.60;;
7340;SDS011;6870;50.944;6.932;2023-03-03T14:25:00;9.23;;;5.67;;
7340;SDS011;6870;50.944;6.932;2023-03-03T14:27:34;9.57;;;6.30;;
7340;SDS011;6870;50.944;6.932;2023-03-03T14:33:01;8.90;;;6.40;;
7340;SDS011;6870;50.944;6.932;2023-03-03T14:35:43;8.97;;;5.20;;
7340;SDS011;6870;50.944;6.932;2023-03-03T14:38:18;9.20;;;5.77;;
7340;SDS011;6870;50.944;6.932;2023-03-03T14:41:02;7.33;;;5.77;;
7340;SDS011;6870;50.944;6.932;2023-03-03T14:43:40;8.07;;;6.17;;
7340;SDS011;6870;50.944;6.932;2023-03-03T14:49:12;14.67;;;6.50;;
7340;SDS011;6870;50.944;6.932;2023-03-03T14:51:43;9.00;;;6.57;;
7340;SDS011;6870;50.944;6.932;2023-03-03T14:54:17;12.53;;;5.90;;
7340;SDS011;6870;50.944;6.932;2023-03-03T14:56:56;9.63;;;6.40;;
7340;SDS011;6870;50.944;6.932;2023-03-03T14:59:27;11.80;;;6.30;;
7340;SDS011;6870;50.944;6.932;2023-03-03T15:02:00;8.67;;;5.90;;
7340;SDS011;6870;50.944;6.932;2023-03-03T15:05:12;9.70;;;6.30;;
7340;SDS011;6870;50.944;6.932;2023-03-03T15:07:46;7.50;;;5.53;;
7340;SDS011;6870;50.944;6.932;2023-03-03T15:10:26;11.30;;;6.60;;
7340;SDS011;6870;50.944;6.932;2023-03-03T15:12:57;10.33;;;5.10;;
7340;SDS011;6870;50.944;6.932;2023-03-03T15:15:36;8.63;;;6.10;;
7340;SDS011;6870;50.944;6.932;2023-03-03T15:18:18;10.13;;;6.60;;
7340;SDS011;6870;50.944;6.932;2023-03-03T15:20:49;9.83;;;5.43;;
7340;SDS011;6870;50.944;6.932;2023-03-03T15:23:31;7.33;;;5.40;;
7340;SDS011;6870;50.944;6.932;2023-03-03T15:26:16;7.67;;;6.00;;
7340;SDS011;6870;50.944;6.932;2023-03-03T15:28:54;5.90;;;5.13;;
7340;SDS011;6870;50.944;6.932;2023-03-03T15:31:35;6.20;;;5.60;;
7340;SDS011;6870;50.944;6.932;2023-03-03T15:34:18;10.53;;;6.53;;
7340;SDS011;6870;50.944;6.932;2023-03-03T15:36:57;6.47;;;5.43;;
7340;SDS011;6870;50.944;6.932;2023-03-03T15:39:35;6.20;;;4.80;;
7340;SDS011;6870;50.944;6.932;2023-03-03T15:42:14;8.05;;;6.07;;
7340;SDS011;6870;50.944;6.932;2023-03-03T15:44:51;9.17;;;6.63;;
7340;SDS011;6870;50.944;6.932;2023-03-03T15:47:33;7.63;;;6.40;;
7340;SDS011;6870;50.944;6.932;2023-03-03T15:50:23;10.43;;;6.50;;
7340;SDS011;6870;50.944;6.932;2023-03-03T15:53:06;7.50;;;5.30;;
7340;SDS011;6870;50.944;6.932;2023-03-03T15:56:03;9.40;;;6.13;;
7340;SDS011;6870;50.944;6.932;2023-03-03T15:58:52;10.20;;;6.20;;
7340;SDS011;6870;50.944;6.932;2023-03-03T16:01:43;5.93;;;5.32;;
7340;SDS011;6870;50.944;6.932;2023-03-03T16:04:20;6.90;;;5.43;;
7340;SDS011;6870;50.944;6.932;2023-03-03T16:06:54;8.00;;;5.20;;
7340;SDS011;6870;50.944;6.932;2023-03-03T16:09:34;9.67;;;5.83;;
7340;SDS011;6870;50.944;6.932;2023-03-03T16:12:19;8.53;;;6.50;;
7340;SDS011;6870;50.944;6.932;2023-03-03T16:15:02;6.83;;;5.50;;
7340;SDS011;6870;50.944;6.932;2023-03-03T16:18:00;5.70;;;4.97;;
7340;SDS011;6870;50.944;6.932;2023-03-03T16:20:35;8.47;;;5.50;;
7340;SDS011;6870;50.944;6.932;2023-03-03T16:26:07;12.93;;;5.13;;
7340;SDS011;6870;50.944;6.932;2023-03-03T16:28:47;10.87;;;5.80;;
7340;SDS011;6870;50.944;6.932;2023-03-03T16:31:31;15.70;;;6.50;;